Time;durP1;ratioP1;P1;durP2;ratioP2;P2;SDS_P1;SDS_P2;PMS_P1;PMS_P2;Temp;Humidity;BMP_temperature;BMP_pressure;BME280_temperature;BME280_humidity;BME280_pressure;Samples;Min_cycle;Max_cycle;Signal;HPM_P1;HPM_P2
2023/07/22 00:01:33;;;;;;;14.88;6.70;;;13.60;99.90;;;;;;5013913;28;20155;-89
2023/07/22 00:03:58;;;;;;;9.68;4.95;;;13.50;99.90;;;;;;5017855;28;20425;-90
2023/07/22 00:06:27;;;;;;;15.07;5.88;;;13.50;99.90;;;;;;4997464;28;20042;-90
2023/07/22 00:08:53;;;;;;;10.35;5.20;;;13.50;99.90;;;;;;5013420;28;20103;-90
2023/07/22 00:11:25;;;;;;;15.45;5.53;;;13.50;99.90;;;;;;5016895;28;20033;-89
2023/07/22 00:13:51;;;;;;;12.95;5.65;;;13.50;99.90;;;;;;5016398;28;20064;-89
2023/07/22 00:16:17;;;;;;;12.82;5.05;;;13.40;99.90;;;;;;4997346;28;20045;-89
2023/07/22 00:18:45;;;;;;;11.82;5.28;;;13.40;99.90;;;;;;5013296;28;20037;-88
2023/07/22 00:21:11;;;;;;;11.52;5.55;;;13.40;99.90;;;;;;5013531;28;20442;-88
2023/07/22 00:23:36;;;;;;;14.05;5.32;;;13.40;99.90;;;;;;5013547;28;20056;-88
2023/07/22 00:26:05;;;;;;;10.95;5.88;;;13.30;99.90;;;;;;5013577;28;20092;-89
2023/07/22 00:28:31;;;;;;;14.77;6.38;;;13.30;99.90;;;;;;4996977;28;20156;-89
2023/07/22 00:30:57;;;;;;;15.63;6.32;;;13.30;99.90;;;;;;5013193;28;20145;-89
2023/07/22 00:33:23;;;;;;;13.30;6.75;;;13.20;99.90;;;;;;5010875;28;20029;-88
2023/07/22 00:35:50;;;;;;;18.63;7.07;;;13.20;99.90;;;;;;5013076;28;20037;-89
2023/07/22 00:38:16;;;;;;;13.65;7.07;;;13.20;99.90;;;;;;4996602;28;20496;-88
2023/07/22 00:40:43;;;;;;;16.13;7.20;;;13.20;99.90;;;;;;5040020;28;20052;-89
2023/07/22 00:43:09;;;;;;;15.10;7.20;;;13.10;99.90;;;;;;5015041;28;20030;-89
2023/07/22 00:45:37;;;;;;;14.60;7.28;;;13.00;99.90;;;;;;5008580;28;20132;-89
2023/07/22 00:48:05;;;;;;;13.23;6.95;;;13.00;99.90;;;;;;5001048;28;20041;-88
2023/07/22 00:50:32;;;;;;;13.45;7.53;;;12.90;99.90;;;;;;5050675;28;20060;-89
2023/07/22 00:53:01;;;;;;;15.73;7.05;;;12.90;99.90;;;;;;5001062;28;20049;-89
2023/07/22 00:55:32;;;;;;;13.05;6.57;;;12.80;99.90;;;;;;5019966;28;20045;-89
2023/07/22 00:57:58;;;;;;;13.52;6.72;;;12.60;99.90;;;;;;5015539;28;20080;-89
2023/07/22 01:00:24;;;;;;;14.52;6.53;;;12.60;99.90;;;;;;5018950;28;20549;-89
2023/07/22 01:02:50;;;;;;;10.50;6.07;;;12.50;99.90;;;;;;5012712;28;20048;-88
2023/07/22 01:05:16;;;;;;;12.93;6.53;;;12.50;99.90;;;;;;5011980;28;20059;-88
2023/07/22 01:07:42;;;;;;;10.75;5.95;;;12.40;99.90;;;;;;4996378;28;20068;-89
2023/07/22 01:10:08;;;;;;;14.00;6.38;;;12.40;99.90;;;;;;5012479;28;20418;-89
2023/07/22 01:12:34;;;;;;;11.23;6.03;;;12.40;99.90;;;;;;5012330;28;20037;-89
2023/07/22 01:15:01;;;;;;;12.10;6.15;;;12.30;99.90;;;;;;5002289;28;20051;-89
2023/07/22 01:17:27;;;;;;;11.70;5.25;;;12.30;99.90;;;;;;5041489;28;20037;-89
2023/07/22 01:19:53;;;;;;;14.75;5.68;;;12.30;99.90;;;;;;5014435;28;20063;-89
2023/07/22 01:22:22;;;;;;;13.80;6.28;;;12.30;99.90;;;;;;4999384;28;20037;-89
2023/07/22 01:24:48;;;;;;;11.88;5.70;;;12.30;99.90;;;;;;5014665;28;20044;-88
2023/07/22 01:27:14;;;;;;;15.20;6.10;;;12.30;99.90;;;;;;5027617;28;20048;-89
2023/07/22 01:29:40;;;;;;;11.45;5.65;;;12.30;99.90;;;;;;5014417;28;20052;-89
2023/07/22 01:32:06;;;;;;;14.63;6.32;;;12.30;99.90;;;;;;5027444;28;20464;-89
2023/07/22 01:34:32;;;;;;;12.93;5.97;;;12.30;99.90;;;;;;5019872;28;20132;-88
2023/07/22 01:37:07;;;;;;;10.95;5.78;;;12.30;99.90;;;;;;5006544;28;20327;-88
2023/07/22 01:39:33;;;;;;;11.27;5.32;;;12.40;99.90;;;;;;5023847;28;20125;-88
2023/07/22 01:41:58;;;;;;;13.23;5.97;;;12.20;99.90;;;;;;5014762;28;20124;-88
2023/07/22 01:44:24;;;;;;;8.93;5.00;;;12.30;99.90;;;;;;4999381;28;20076;-89
2023/07/22 01:46:50;;;;;;;11.73;5.72;;;12.30;99.90;;;;;;5011230;28;20504;-88
2023/07/22 01:49:16;;;;;;;10.80;5.75;;;12.20;99.90;;;;;;5001826;28;20052;-88
2023/07/22 01:51:42;;;;;;;10.40;5.55;;;12.20;99.90;;;;;;5025883;28;20143;-88
2023/07/22 01:54:09;;;;;;;12.50;5.45;;;12.20;99.90;;;;;;5036644;28;20123;-88
2023/07/22 01:56:38;;;;;;;15.25;5.72;;;12.10;99.90;;;;;;5022487;28;20041;-89
2023/07/22 01:59:04;;;;;;;11.18;5.57;;;12.10;99.90;;;;;;5013857;28;20339;-88
2023/07/22 02:01:30;;;;;;;15.13;5.82;;;12.00;99.90;;;;;;5005511;28;20037;-88
2023/07/22 02:04:02;;;;;;;14.35;5.88;;;12.00;99.90;;;;;;5013702;28;20056;-89
2023/07/22 02:06:28;;;;;;;12.83;5.43;;;11.90;99.90;;;;;;5010257;28;20077;-88
2023/07/22 02:08:57;;;;;;;10.10;5.05;;;11.90;99.90;;;;;;5014217;28;20091;-89
2023/07/22 02:11:23;;;;;;;9.50;4.85;;;11.90;99.90;;;;;;5026617;28;20366;-89
2023/07/22 02:13:48;;;;;;;12.45;4.97;;;11.80;99.90;;;;;;5013690;28;20041;-90
2023/07/22 02:16:14;;;;;;;9.60;4.78;;;11.90;99.90;;;;;;5024588;28;20575;-89
2023/07/22 02:18:40;;;;;;;12.35;5.28;;;11.80;99.90;;;;;;5013491;28;20037;-89
2023/07/22 02:21:09;;;;;;;10.27;4.38;;;11.70;99.90;;;;;;5011215;28;20048;-89
2023/07/22 02:23:34;;;;;;;9.90;4.68;;;11.70;99.90;;;;;;4996471;28;20125;-89
2023/07/22 02:26:11;;;;;;;11.63;5.05;;;11.60;99.90;;;;;;5010588;28;20124;-89
2023/07/22 02:28:40;;;;;;;9.75;4.85;;;11.60;99.90;;;;;;5002073;28;20085;-89
2023/07/22 02:31:07;;;;;;;10.30;4.55;;;11.50;99.90;;;;;;5011243;28;20057;-89
2023/07/22 02:33:35;;;;;;;10.32;4.75;;;11.50;99.90;;;;;;5012803;28;20450;-89
2023/07/22 02:36:11;;;;;;;14.10;4.28;;;11.50;99.90;;;;;;5029906;28;20120;-89
2023/07/22 02:38:39;;;;;;;11.70;4.90;;;11.50;99.90;;;;;;5001467;28;20049;-89
2023/07/22 02:41:07;;;;;;;9.88;4.57;;;11.40;99.90;;;;;;4997559;28;20053;-89
2023/07/22 02:43:45;;;;;;;8.93;4.70;;;11.50;99.90;;;;;;5006198;28;20056;-88
2023/07/22 02:46:22;;;;;;;9.35;4.60;;;11.40;99.90;;;;;;4994373;28;20045;-89
2023/07/22 02:48:48;;;;;;;10.68;4.68;;;11.40;99.90;;;;;;5010343;28;20443;-89
2023/07/22 02:51:14;;;;;;;8.77;4.32;;;11.30;99.90;;;;;;5010235;28;20044;-89
2023/07/22 02:53:41;;;;;;;11.52;4.88;;;11.30;99.90;;;;;;5002578;28;20053;-89
2023/07/22 02:56:07;;;;;;;10.38;4.85;;;11.30;99.90;;;;;;5013409;28;20561;-89
2023/07/22 02:58:39;;;;;;;8.73;4.38;;;11.30;99.90;;;;;;5010551;28;20199;-89
2023/07/22 03:01:08;;;;;;;8.95;4.03;;;11.30;99.90;;;;;;5007584;28;20302;-89
2023/07/22 03:03:35;;;;;;;10.25;4.18;;;11.30;99.90;;;;;;4994705;28;20041;-88
2023/07/22 03:06:01;;;;;;;6.93;4.10;;;11.30;99.90;;;;;;5010526;28;20497;-87
2023/07/22 03:08:27;;;;;;;9.95;5.40;;;11.20;99.90;;;;;;5018886;28;20045;-88
2023/07/22 03:10:56;;;;;;;8.18;3.88;;;11.20;99.90;;;;;;5027523;28;20045;-88
2023/07/22 03:13:22;;;;;;;7.63;4.25;;;11.20;99.90;;;;;;5007424;28;20183;-88
2023/07/22 03:15:47;;;;;;;5.25;2.33;;;11.10;99.90;;;;;;5009304;28;20038;-88
2023/07/22 03:18:13;;;;;;;29.90;4.53;;;11.10;99.90;;;;;;5011303;28;20176;-88
2023/07/22 03:20:39;;;;;;;8.52;4.10;;;11.00;99.90;;;;;;4996598;28;20072;-88
2023/07/22 03:23:06;;;;;;;7.03;3.70;;;10.90;99.90;;;;;;4994376;28;20057;-88
2023/07/22 03:25:33;;;;;;;8.35;3.47;;;10.90;99.90;;;;;;4993835;28;20482;-88
2023/07/22 03:28:10;;;;;;;6.00;3.38;;;10.90;99.90;;;;;;5014999;28;20060;-88
2023/07/22 03:30:35;;;;;;;6.80;3.30;;;10.90;99.90;;;;;;5008914;28;20042;-88
2023/07/22 03:33:01;;;;;;;6.55;3.30;;;10.90;99.90;;;;;;5010666;28;20120;-88
2023/07/22 03:35:27;;;;;;;7.65;3.22;;;10.90;99.90;;;;;;5009745;28;20037;-88
2023/07/22 03:37:56;;;;;;;9.82;4.30;;;10.90;99.90;;;;;;5010049;28;20049;-88
2023/07/22 03:40:31;;;;;;;9.52;4.22;;;10.80;99.90;;;;;;4994089;28;20563;-88
2023/07/22 03:42:57;;;;;;;7.60;3.30;;;10.80;99.90;;;;;;5026482;28;20068;-88
2023/07/22 03:45:24;;;;;;;9.02;3.60;;;10.80;99.90;;;;;;5015037;28;20124;-88
2023/07/22 03:47:56;;;;;;;6.07;2.70;;;10.90;99.90;;;;;;5049845;28;20119;-88
2023/07/22 03:50:25;;;;;;;9.40;4.00;;;10.90;99.90;;;;;;5022830;28;20042;-88
2023/07/22 03:52:51;;;;;;;8.13;3.58;;;10.90;99.90;;;;;;4997893;28;20041;-89
2023/07/22 03:55:23;;;;;;;7.22;3.42;;;10.90;99.90;;;;;;5014415;28;20052;-88
2023/07/22 03:57:48;;;;;;;6.38;4.10;;;10.90;99.90;;;;;;5010999;28;20073;-89
2023/07/22 04:00:23;;;;;;;10.15;5.20;;;11.00;99.90;;;;;;5013864;28;20130;-89
2023/07/22 04:02:52;;;;;;;8.18;4.45;;;10.90;99.90;;;;;;4997145;28;20060;-88
2023/07/22 04:05:23;;;;;;;11.73;6.70;;;11.10;99.90;;;;;;5013380;28;20186;-88
2023/07/22 04:07:52;;;;;;;13.90;7.53;;;11.20;99.90;;;;;;5001178;28;20045;-89
2023/07/22 04:10:18;;;;;;;13.57;7.72;;;11.30;99.90;;;;;;5024537;28;20045;-89
2023/07/22 04:12:44;;;;;;;13.52;7.10;;;11.40;99.90;;;;;;5029116;28;20056;-89
2023/07/22 04:15:10;;;;;;;12.68;7.00;;;11.60;99.90;;;;;;5002456;28;20045;-89
2023/07/22 04:17:39;;;;;;;14.40;7.95;;;11.70;99.90;;;;;;5013704;28;20053;-89
2023/07/22 04:20:07;;;;;;;16.05;7.30;;;11.80;99.90;;;;;;5013533;28;20045;-88
2023/07/22 04:22:33;;;;;;;17.13;7.97;;;11.90;99.90;;;;;;4999574;28;20327;-88
2023/07/22 04:24:58;;;;;;;13.88;7.70;;;12.10;99.90;;;;;;5015877;28;20124;-88
2023/07/22 04:27:26;;;;;;;15.60;8.55;;;12.20;99.90;;;;;;5032395;28;20048;-88
2023/07/22 04:29:52;;;;;;;19.65;8.38;;;12.30;99.90;;;;;;5015544;28;20060;-88
2023/07/22 04:32:17;;;;;;;16.20;8.40;;;12.30;99.90;;;;;;5010180;28;20045;-88
2023/07/22 04:34:43;;;;;;;17.85;8.93;;;12.40;99.90;;;;;;5035762;28;20523;-88
2023/07/22 04:37:09;;;;;;;16.23;7.70;;;12.50;99.90;;;;;;5028032;28;20542;-88
2023/07/22 04:39:35;;;;;;;12.63;8.25;;;12.60;99.90;;;;;;5000945;28;20324;-87
2023/07/22 04:42:01;;;;;;;14.32;7.05;;;12.60;99.90;;;;;;5006532;28;20045;-88
2023/07/22 04:44:27;;;;;;;12.27;6.57;;;12.70;99.90;;;;;;5012519;28;20126;-88
2023/07/22 04:46:55;;;;;;;14.05;7.18;;;12.70;99.90;;;;;;5019703;28;20053;-88
2023/07/22 04:49:30;;;;;;;13.40;6.68;;;12.80;99.90;;;;;;5002444;28;20064;-88
2023/07/22 04:51:56;;;;;;;13.15;6.93;;;12.80;99.90;;;;;;5029148;28;20520;-88
2023/07/22 04:54:22;;;;;;;12.77;5.43;;;12.90;99.90;;;;;;5012430;28;20073;-88
2023/07/22 04:56:47;;;;;;;14.10;5.63;;;12.90;99.90;;;;;;5012773;28;20497;-88
2023/07/22 04:59:14;;;;;;;12.82;5.32;;;12.90;99.90;;;;;;5012903;28;20472;-88
2023/07/22 05:01:40;;;;;;;11.18;5.35;;;13.00;99.90;;;;;;5027780;28;20056;-89
2023/07/22 05:04:06;;;;;;;9.07;4.85;;;13.00;99.90;;;;;;5015506;28;20489;-88
2023/07/22 05:06:32;;;;;;;8.82;4.70;;;13.00;99.90;;;;;;5023630;28;20048;-88
2023/07/22 05:08:58;;;;;;;8.75;5.13;;;13.00;99.90;;;;;;5045199;28;20485;-88
2023/07/22 05:11:24;;;;;;;13.38;6.05;;;13.10;99.90;;;;;;5012751;28;20044;-88
2023/07/22 05:13:50;;;;;;;12.82;5.80;;;13.20;99.90;;;;;;4995857;28;20154;-88
2023/07/22 05:16:16;;;;;;;9.77;5.60;;;13.20;99.90;;;;;;4996698;28;20513;-89
2023/07/22 05:18:42;;;;;;;11.07;6.00;;;13.30;99.90;;;;;;4997942;28;20038;-88
2023/07/22 05:21:08;;;;;;;12.60;6.63;;;13.30;99.90;;;;;;4995278;28;20045;-88
2023/07/22 05:23:39;;;;;;;17.17;5.85;;;13.30;99.90;;;;;;5028450;28;20037;-88
2023/07/22 05:26:05;;;;;;;14.15;5.75;;;13.70;99.90;;;;;;5011942;28;20085;-88
2023/07/22 05:28:31;;;;;;;13.60;6.50;;;13.40;99.90;;;;;;5033133;28;20087;-88
2023/07/22 05:30:57;;;;;;;12.50;6.55;;;13.50;99.90;;;;;;5021580;28;20468;-89
2023/07/22 05:33:22;;;;;;;13.70;6.35;;;13.50;99.90;;;;;;5028817;28;20061;-84
2023/07/22 05:35:48;;;;;;;12.18;6.22;;;13.60;99.90;;;;;;4992433;28;20041;-84
2023/07/22 05:38:14;;;;;;;10.90;6.55;;;13.70;99.90;;;;;;5015290;28;20123;-87
2023/07/22 05:40:40;;;;;;;11.43;6.25;;;13.70;99.90;;;;;;5017538;28;20100;-88
2023/07/22 05:43:05;;;;;;;20.42;7.45;;;13.80;99.90;;;;;;5041091;28;20092;-87
2023/07/22 05:45:31;;;;;;;11.02;6.57;;;13.90;99.90;;;;;;5003067;28;20084;-89
2023/07/22 05:47:57;;;;;;;14.38;6.60;;;14.00;99.90;;;;;;4999785;28;20515;-89
2023/07/22 05:50:22;;;;;;;10.43;6.45;;;14.20;99.90;;;;;;5019675;28;20540;-89
2023/07/22 05:52:49;;;;;;;11.52;7.35;;;14.30;99.90;;;;;;5008032;28;20079;-89
2023/07/22 05:55:15;;;;;;;12.68;6.80;;;14.40;99.90;;;;;;5011506;28;20053;-89
2023/07/22 05:57:42;;;;;;;13.65;7.15;;;14.50;99.90;;;;;;5013660;28;20543;-89
2023/07/22 06:00:08;;;;;;;12.52;6.45;;;14.60;99.90;;;;;;5018825;28;20041;-89
2023/07/22 06:02:34;;;;;;;14.55;7.50;;;14.70;99.90;;;;;;5014796;28;20045;-89
2023/07/22 06:05:01;;;;;;;12.77;7.35;;;14.70;99.90;;;;;;5012847;28;20382;-89
2023/07/22 06:07:27;;;;;;;11.80;7.25;;;14.80;99.90;;;;;;5012750;28;20038;-89
2023/07/22 06:09:53;;;;;;;12.60;8.07;;;14.80;99.90;;;;;;5027276;28;20124;-90
2023/07/22 06:12:34;;;;;;;17.80;7.32;;;14.90;99.90;;;;;;5009193;28;20063;-91
2023/07/22 06:15:04;;;;;;;;;;;15.00;99.90;;;;;;5014669;28;20116;-91
2023/07/22 06:17:33;;;;;;;14.73;7.63;;;15.20;99.90;;;;;;5006588;28;20049;-88
2023/07/22 06:19:58;;;;;;;14.15;7.90;;;15.20;99.90;;;;;;5018446;28;20049;-87
2023/07/22 06:22:24;;;;;;;13.13;7.93;;;15.30;99.90;;;;;;5026805;28;20048;-88
2023/07/22 06:24:50;;;;;;;15.43;7.47;;;15.40;99.90;;;;;;5010838;28;20072;-87
2023/07/22 06:27:16;;;;;;;14.27;7.20;;;15.50;99.90;;;;;;5029372;28;20048;-88
2023/07/22 06:29:41;;;;;;;12.00;7.68;;;15.70;99.90;;;;;;5025937;28;20064;-90
2023/07/22 06:32:07;;;;;;;12.50;7.25;;;15.70;99.90;;;;;;5008791;28;20042;-86
2023/07/22 06:34:33;;;;;;;12.70;7.28;;;15.80;99.90;;;;;;5002095;28;20093;-92
2023/07/22 06:36:59;;;;;;;16.55;7.60;;;15.80;99.90;;;;;;5008315;28;20079;-89
2023/07/22 06:39:24;;;;;;;11.75;7.65;;;15.90;99.90;;;;;;5006360;28;20042;-88
2023/07/22 06:41:50;;;;;;;15.75;8.55;;;15.90;99.90;;;;;;5001967;28;20045;-89
2023/07/22 06:44:16;;;;;;;12.45;7.68;;;16.00;99.90;;;;;;4997927;28;20049;-88
2023/07/22 06:46:42;;;;;;;12.15;7.75;;;16.10;99.90;;;;;;5012327;28;20075;-86
2023/07/22 06:49:07;;;;;;;13.25;8.55;;;16.20;99.90;;;;;;5021955;28;20045;-86
2023/07/22 06:51:35;;;;;;;16.40;8.38;;;16.40;99.90;;;;;;5016113;28;20037;-86
2023/07/22 06:54:02;;;;;;;12.23;7.95;;;16.50;99.90;;;;;;5031838;28;20037;-86
2023/07/22 06:56:28;;;;;;;15.35;7.95;;;16.70;99.90;;;;;;5027703;28;20042;-85
2023/07/22 06:58:54;;;;;;;13.13;7.40;;;16.80;99.90;;;;;;5021475;28;20045;-91
2023/07/22 07:01:19;;;;;;;14.73;8.32;;;16.90;99.90;;;;;;5022176;28;20124;-88
2023/07/22 07:03:45;;;;;;;15.18;7.80;;;16.90;99.90;;;;;;5010820;28;20061;-87
2023/07/22 07:06:11;;;;;;;10.65;7.40;;;17.00;99.90;;;;;;5018979;28;20052;-87
2023/07/22 07:08:37;;;;;;;12.40;8.23;;;17.00;99.90;;;;;;5008977;28;20044;-86
2023/07/22 07:11:03;;;;;;;12.95;7.57;;;17.10;99.90;;;;;;5029638;28;20048;-87
2023/07/22 07:13:29;;;;;;;16.20;8.25;;;17.20;99.90;;;;;;5028536;28;20073;-85
2023/07/22 07:15:54;;;;;;;18.80;8.05;;;17.20;99.90;;;;;;5016049;28;20107;-87
2023/07/22 07:18:20;;;;;;;14.77;7.80;;;17.30;99.90;;;;;;5026889;28;20042;-87
2023/07/22 07:20:46;;;;;;;16.00;8.57;;;17.50;99.90;;;;;;5030640;28;20041;-87
2023/07/22 07:23:15;;;;;;;11.40;7.97;;;17.60;99.90;;;;;;5028401;28;20052;-87
2023/07/22 07:25:41;;;;;;;11.52;7.72;;;17.70;99.90;;;;;;5009895;28;20104;-85
2023/07/22 07:28:07;;;;;;;11.88;7.70;;;17.80;99.90;;;;;;5006923;28;20912;-87
2023/07/22 07:30:33;;;;;;;11.20;7.68;;;17.70;99.90;;;;;;5012080;28;20052;-85
2023/07/22 07:32:59;;;;;;;12.40;7.55;;;17.70;99.90;;;;;;5020230;28;20033;-87
2023/07/22 07:35:25;;;;;;;18.65;8.00;;;17.60;99.90;;;;;;4994695;28;20128;-86
2023/07/22 07:37:51;;;;;;;13.52;7.80;;;17.50;99.90;;;;;;5020825;28;20132;-86
2023/07/22 07:40:17;;;;;;;14.43;7.80;;;17.40;99.90;;;;;;5022124;28;20126;-87
2023/07/22 07:42:42;;;;;;;18.77;8.77;;;17.30;99.90;;;;;;5010682;28;20660;-87
2023/07/22 07:45:09;;;;;;;14.82;9.15;;;17.30;99.90;;;;;;5032809;28;20045;-87
2023/07/22 07:47:35;;;;;;;16.85;8.35;;;17.20;99.90;;;;;;5021894;28;20077;-91
2023/07/22 07:50:01;;;;;;;13.27;8.68;;;17.30;99.90;;;;;;5023676;28;20076;-88
2023/07/22 07:52:28;;;;;;;15.73;8.63;;;17.20;99.90;;;;;;5014658;28;20041;-89
2023/07/22 07:54:54;;;;;;;13.95;8.15;;;17.30;99.90;;;;;;5013176;28;20743;-90
2023/07/22 07:57:20;;;;;;;13.70;8.70;;;17.40;99.90;;;;;;4995025;28;20393;-89
2023/07/22 07:59:46;;;;;;;16.23;9.15;;;17.50;99.90;;;;;;5016789;28;20164;-86
2023/07/22 08:02:12;;;;;;;13.48;8.35;;;17.50;99.90;;;;;;5028900;28;20109;-87
2023/07/22 08:04:38;;;;;;;23.17;9.15;;;17.60;99.90;;;;;;5005990;28;20045;-87
2023/07/22 08:07:06;;;;;;;12.20;7.93;;;17.70;99.90;;;;;;5014515;28;20041;-86
2023/07/22 08:09:32;;;;;;;16.73;7.70;;;17.80;99.90;;;;;;5004980;28;20037;-87
2023/07/22 08:11:57;;;;;;;14.93;7.47;;;17.90;99.90;;;;;;4995247;28;20056;-86
2023/07/22 08:14:23;;;;;;;10.45;7.13;;;18.10;99.90;;;;;;5018631;28;20504;-87
2023/07/22 08:16:49;;;;;;;11.02;6.80;;;18.30;99.90;;;;;;5013197;28;20041;-87
2023/07/22 08:19:15;;;;;;;10.65;6.20;;;18.50;99.90;;;;;;4999231;28;20044;-86
2023/07/22 08:21:40;;;;;;;12.48;6.60;;;18.80;99.90;;;;;;5031199;28;20042;-88
2023/07/22 08:24:07;;;;;;;10.35;6.45;;;18.80;99.90;;;;;;5035782;28;20038;-87
2023/07/22 08:26:33;;;;;;;11.70;6.90;;;18.80;99.90;;;;;;4995920;28;20041;-87
2023/07/22 08:29:01;;;;;;;15.18;6.50;;;18.90;99.90;;;;;;5006340;28;20056;-88
2023/07/22 08:31:27;;;;;;;10.55;6.82;;;19.00;99.90;;;;;;5008132;28;20049;-87
2023/07/22 08:33:52;;;;;;;11.85;6.50;;;18.90;99.90;;;;;;5007981;28;20567;-87
2023/07/22 08:36:18;;;;;;;12.65;6.40;;;18.80;99.90;;;;;;5020568;28;20080;-87
2023/07/22 08:38:44;;;;;;;10.15;6.00;;;18.80;99.90;;;;;;5001346;28;20053;-88
2023/07/22 08:41:14;;;;;;;11.55;6.20;;;18.80;99.90;;;;;;5011891;28;20120;-87
2023/07/22 08:43:41;;;;;;;7.45;5.47;;;18.70;99.90;;;;;;4995620;28;20053;-87
2023/07/22 08:46:07;;;;;;;8.25;5.65;;;18.70;99.90;;;;;;4997127;28;20049;-88
2023/07/22 08:48:36;;;;;;;8.50;5.03;;;18.70;99.90;;;;;;5024872;28;20034;-88
2023/07/22 08:51:12;;;;;;;7.43;5.13;;;18.80;99.90;;;;;;5030878;28;20045;-88
2023/07/22 08:53:38;;;;;;;9.15;5.47;;;18.80;99.90;;;;;;5001940;28;20052;-88
2023/07/22 08:56:04;;;;;;;8.35;5.38;;;19.00;99.90;;;;;;5030028;28;20040;-88
2023/07/22 08:58:34;;;;;;;11.77;5.88;;;19.00;99.90;;;;;;4996267;28;20052;-88
2023/07/22 09:01:01;;;;;;;7.70;4.80;;;19.10;99.90;;;;;;5028007;28;20501;-89
2023/07/22 09:06:12;;;;;;;8.68;5.30;;;19.30;99.90;;;;;;5043899;22;20057;-93
2023/07/22 09:08:45;;;;;;;8.57;4.88;;;19.40;99.90;;;;;;4991321;28;20165;-93
2023/07/22 09:11:22;;;;;;;8.05;4.20;;;19.40;99.90;;;;;;5011052;28;20050;-93
2023/07/22 09:14:01;;;;;;;7.78;4.50;;;19.50;99.90;;;;;;4973661;28;20057;-93
2023/07/22 09:16:52;;;;;;;8.32;4.35;;;19.70;99.90;;;;;;4968493;28;20050;-94
2023/07/22 09:19:21;;;;;;;6.90;4.10;;;19.80;99.90;;;;;;4974462;28;20177;-94
2023/07/22 09:22:04;;;;;;;6.63;3.85;;;19.70;99.90;;;;;;4991902;28;20115;-93
2023/07/22 09:24:44;;;;;;;8.07;4.78;;;19.90;99.90;;;;;;4994046;28;20149;-92
2023/07/22 09:27:32;;;;;;;7.93;4.40;;;19.90;99.90;;;;;;5016048;28;20054;-93
2023/07/22 09:30:40;;;;;;;;;;;;;;;;;;;;;
2023/07/22 09:33:22;;;;;;;8.00;3.72;;;19.50;99.90;;;;;;4998142;28;20213;-92
2023/07/22 09:35:56;;;;;;;6.43;4.13;;;19.30;99.90;;;;;;4999338;28;20033;-92
2023/07/22 09:38:38;;;;;;;10.67;4.17;;;19.00;99.90;;;;;;5001474;28;20081;-92
2023/07/22 09:41:41;;;;;;;20.35;7.13;;;18.80;99.90;;;;;;4976584;28;20042;-96
2023/07/22 09:44:24;;;;;;;13.27;6.95;;;18.40;99.90;;;;;;4980952;28;20058;-94
2023/07/22 09:47:23;;;;;;;12.65;7.50;;;18.00;99.90;;;;;;4985352;28;20099;-95
2023/07/22 09:50:13;;;;;;;12.77;7.95;;;17.60;99.90;;;;;;4990539;28;20066;-94
2023/07/22 09:53:15;;;;;;;13.57;8.55;;;17.40;99.90;;;;;;5005671;28;20048;-95
2023/07/22 09:56:14;;;;;;;11.60;7.97;;;17.20;99.90;;;;;;4999986;28;20101;-94
2023/07/22 09:58:54;;;;;;;12.77;8.05;;;17.20;99.90;;;;;;5002611;28;20049;-96
2023/07/22 10:02:20;;;;;;;15.32;8.18;;;17.20;99.90;;;;;;4989205;28;20049;-95
2023/07/22 10:05:46;;;;;;;13.82;7.75;;;17.30;99.90;;;;;;4988315;28;20569;-96
2023/07/22 10:12:09;;;;;;;12.35;6.07;;;17.40;99.90;;;;;;4930713;29;20543;-95
2023/07/22 10:25:20;;;;;;;11.00;6.72;;;17.40;99.90;;;;;;4965226;28;20045;-95
2023/07/22 10:28:10;;;;;;;12.93;7.47;;;17.40;99.90;;;;;;4974284;28;20157;-94
2023/07/22 10:34:07;;;;;;;10.93;6.82;;;17.20;99.90;;;;;;4995723;28;20109;-93
2023/07/22 10:37:31;;;;;;;10.93;6.47;;;17.50;99.90;;;;;;5013006;28;20049;-94
2023/07/22 10:40:41;;;;;;;;;;;;;;;;;;;;;
2023/07/22 10:43:34;;;;;;;12.27;6.47;;;17.40;99.90;;;;;;4948978;28;20037;-94
2023/07/22 10:46:55;;;;;;;11.63;6.47;;;17.40;99.90;;;;;;4980838;28;20176;-95
2023/07/22 10:50:47;;;;;;;;;;;;;;;;;;;;;
2023/07/22 10:54:13;;;;;;;13.23;7.05;;;17.60;99.90;;;;;;4915821;29;20284;-94
2023/07/22 10:56:59;;;;;;;12.63;6.13;;;17.60;99.90;;;;;;4908758;28;20053;-95
2023/07/22 11:04:30;;;;;;;10.30;6.20;;;17.60;99.90;;;;;;4949641;28;20046;-93
2023/07/22 11:07:11;;;;;;;9.95;5.28;;;17.50;99.90;;;;;;4982479;28;21101;-94
2023/07/22 11:10:18;;;;;;;9.00;5.90;;;17.30;99.90;;;;;;4963558;28;20178;-94
2023/07/22 11:12:59;;;;;;;11.02;6.25;;;17.30;99.90;;;;;;4977726;28;20150;-93
2023/07/22 11:15:32;;;;;;;10.45;6.38;;;17.10;99.90;;;;;;4986557;28;20058;-93
2023/07/22 11:18:09;;;;;;;12.07;6.78;;;17.10;99.90;;;;;;4976835;28;20145;-93
2023/07/22 11:21:01;;;;;;;9.20;6.03;;;17.10;99.90;;;;;;4976223;28;20061;-93
2023/07/22 11:23:50;;;;;;;11.07;6.40;;;17.10;99.90;;;;;;4972037;28;20076;-93
2023/07/22 11:26:47;;;;;;;10.45;6.72;;;17.10;99.90;;;;;;4966646;28;20108;-93
2023/07/22 11:29:34;;;;;;;12.10;6.43;;;17.10;99.90;;;;;;4961027;28;20059;-93
2023/07/22 11:32:26;;;;;;;10.35;5.65;;;16.80;99.90;;;;;;4994927;28;20053;-93
2023/07/22 11:35:26;;;;;;;10.07;6.88;;;16.90;99.90;;;;;;4971398;28;20137;-93
2023/07/22 11:38:07;;;;;;;10.05;6.88;;;17.00;99.90;;;;;;4968515;28;20152;-94
2023/07/22 11:40:48;;;;;;;10.40;6.10;;;16.90;99.90;;;;;;4985323;28;20054;-94
2023/07/22 11:43:53;;;;;;;8.27;5.88;;;16.70;99.90;;;;;;4978745;28;20046;-94
2023/07/22 11:46:31;;;;;;;9.18;6.25;;;16.80;99.90;;;;;;5006672;28;20053;-94
2023/07/22 11:49:01;;;;;;;10.10;6.20;;;16.80;99.90;;;;;;5007498;28;20057;-94
2023/07/22 11:51:56;;;;;;;;;;;;;;;;;;;;;
2023/07/22 11:54:49;;;;;;;10.40;6.93;;;16.80;99.90;;;;;;5014255;28;20045;-94
2023/07/22 11:57:44;;;;;;;10.57;7.05;;;16.80;99.90;;;;;;5005196;28;20645;-94
2023/07/22 12:00:42;;;;;;;8.77;6.68;;;16.90;99.90;;;;;;5010061;28;20131;-94
2023/07/22 12:03:13;;;;;;;13.20;7.40;;;16.90;99.90;;;;;;4977938;28;20054;-93
2023/07/22 12:05:51;;;;;;;11.98;7.35;;;17.00;99.90;;;;;;5010022;28;20474;-94
2023/07/22 12:08:48;;;;;;;;;;;;;;;;;;;;;
2023/07/22 12:15:03;;;;;;;11.80;7.22;;;17.10;99.90;;;;;;5010160;28;20912;-93
2023/07/22 12:18:05;;;;;;;13.02;7.35;;;17.00;99.90;;;;;;5009616;28;20046;-94
2023/07/22 12:20:48;;;;;;;9.93;6.95;;;17.00;99.90;;;;;;4996561;28;20041;-95
2023/07/22 12:23:22;;;;;;;13.52;8.93;;;17.20;99.90;;;;;;4991142;28;20043;-96
2023/07/22 12:26:25;;;;;;;11.18;8.38;;;17.20;99.90;;;;;;4970002;28;20149;-94
2023/07/22 12:29:17;;;;;;;14.18;9.40;;;17.20;99.90;;;;;;4972416;28;20458;-95
2023/07/22 12:32:01;;;;;;;13.55;8.35;;;17.30;99.90;;;;;;4960352;28;20058;-94
2023/07/22 12:38:17;;;;;;;14.02;7.90;;;17.50;99.90;;;;;;4952064;28;20047;-94
2023/07/22 12:40:58;;;;;;;12.38;8.63;;;17.50;99.90;;;;;;4952270;28;20057;-93
2023/07/22 12:44:04;;;;;;;15.07;8.47;;;17.50;99.90;;;;;;4938205;28;20058;-93
2023/07/22 12:46:58;;;;;;;14.90;8.35;;;17.50;99.90;;;;;;4958286;28;20293;-94
2023/07/22 12:49:36;;;;;;;14.55;9.30;;;17.60;99.90;;;;;;4959208;28;20093;-93
2023/07/22 12:52:09;;;;;;;13.15;8.68;;;17.70;99.90;;;;;;4988100;28;20170;-95
2023/07/22 12:55:22;;;;;;;12.18;8.60;;;17.80;99.90;;;;;;4970406;28;20240;-94
2023/07/22 12:58:26;;;;;;;11.63;7.43;;;17.80;99.90;;;;;;4983936;28;20089;-95
2023/07/22 13:01:01;;;;;;;12.48;7.72;;;17.90;99.90;;;;;;4980845;28;20136;-95
2023/07/22 13:06:30;;;;;;;11.48;7.22;;;18.10;99.90;;;;;;5019225;28;20041;-94
2023/07/22 13:12:23;;;;;;;8.48;6.65;;;18.10;99.90;;;;;;4997847;28;20128;-96
2023/07/22 13:16:01;;;;;;;14.25;5.88;;;18.20;99.90;;;;;;4923537;29;20305;-95
2023/07/22 13:18:38;;;;;;;12.90;7.07;;;18.20;99.90;;;;;;4940818;28;20064;-93
2023/07/22 13:21:06;;;;;;;9.18;6.63;;;18.00;99.90;;;;;;4985972;28;20391;-93
2023/07/22 13:23:33;;;;;;;9.52;7.55;;;18.10;99.90;;;;;;5012614;28;20121;-92
2023/07/22 13:25:59;;;;;;;10.65;7.80;;;18.20;99.90;;;;;;5001412;28;20038;-91
2023/07/22 13:28:24;;;;;;;9.95;7.20;;;18.40;99.90;;;;;;5000589;28;20108;-90
2023/07/22 13:30:53;;;;;;;11.07;7.47;;;18.30;99.90;;;;;;4974759;28;20053;-91
2023/07/22 13:33:23;;;;;;;9.52;6.90;;;18.40;99.90;;;;;;4985111;28;20045;-93
2023/07/22 13:36:02;;;;;;;9.73;7.15;;;18.40;99.90;;;;;;4998395;28;20098;-96
2023/07/22 13:38:30;;;;;;;10.48;7.85;;;18.30;99.90;;;;;;4990555;28;20185;-92
2023/07/22 13:40:56;;;;;;;14.32;7.97;;;18.20;99.90;;;;;;4997676;28;20037;-91
2023/07/22 13:43:22;;;;;;;12.90;8.13;;;18.20;99.90;;;;;;4982861;28;20048;-89
2023/07/22 13:45:48;;;;;;;11.57;8.43;;;18.20;99.90;;;;;;4976429;28;20069;-90
2023/07/22 13:48:13;;;;;;;13.60;7.65;;;18.20;99.90;;;;;;5005056;28;20097;-91
2023/07/22 13:50:42;;;;;;;12.27;7.85;;;18.20;99.90;;;;;;4988079;28;20045;-91
2023/07/22 13:53:08;;;;;;;15.07;8.27;;;18.20;99.90;;;;;;5005271;28;20513;-89